createdAt,value
2023-04-21T00:00:08.156Z,101654.59
2023-04-21T00:02:39.831Z,101648.41
2023-04-21T00:05:11.481Z,101645.19
2023-04-21T00:07:40.597Z,101657.47
2023-04-21T00:10:12.175Z,101667.25
2023-04-21T00:12:41.597Z,101665.63
2023-04-21T00:15:11.274Z,101659.50
2023-04-21T00:17:40.745Z,101654.94
2023-04-21T00:20:11.663Z,101659.34
2023-04-21T00:22:40.118Z,101665.63
2023-04-21T00:25:11.338Z,101666.41
2023-04-21T00:27:40.040Z,101661.63
2023-04-21T00:30:10.694Z,101657.72
2023-04-21T00:32:39.473Z,101662.09
2023-04-21T00:35:08.718Z,101660.78
2023-04-21T00:37:37.038Z,101663.00
2023-04-21T00:40:06.243Z,101661.91
2023-04-21T00:42:36.218Z,101660.09
2023-04-21T00:45:05.159Z,101653.75
2023-04-21T00:47:33.892Z,101651.25
2023-04-21T00:50:02.511Z,101650.81
2023-04-21T00:52:32.221Z,101659.41
2023-04-21T00:55:01.648Z,101653.13
2023-04-21T00:57:30.483Z,101656.09
2023-04-21T01:00:00.485Z,101649.56
2023-04-21T01:02:29.787Z,101654.22
2023-04-21T01:04:58.426Z,101644.44
2023-04-21T01:07:27.336Z,101643.00
2023-04-21T01:09:55.628Z,101644.69
2023-04-21T01:12:24.001Z,101655.22
2023-04-21T01:14:52.864Z,101645.78
2023-04-21T01:17:23.654Z,101636.03
2023-04-21T01:19:53.253Z,101627.59
2023-04-21T01:22:23.628Z,101628.03
2023-04-21T01:24:51.938Z,101618.19
2023-04-21T01:27:22.508Z,101615.81
2023-04-21T01:29:53.969Z,101597.78
2023-04-21T01:32:24.574Z,101603.13
2023-04-21T01:34:53.177Z,101594.97
2023-04-21T01:37:26.402Z,101576.63
2023-04-21T01:39:57.000Z,101578.56
2023-04-21T01:42:28.591Z,101575.91
2023-04-21T01:44:58.506Z,101572.69
2023-04-21T01:47:27.939Z,101568.47
2023-04-21T01:49:56.727Z,101564.25
2023-04-21T01:52:27.437Z,101575.56
2023-04-21T01:54:56.878Z,101584.41
2023-04-21T01:57:25.746Z,101582.06
2023-04-21T01:59:54.669Z,101590.22
2023-04-21T02:02:23.310Z,101599.81
2023-04-21T02:04:51.918Z,101588.56
2023-04-21T02:07:20.409Z,101592.66
2023-04-21T02:09:50.340Z,101599.97
2023-04-21T02:12:19.071Z,101600.81
2023-04-21T02:14:48.416Z,101610.91
2023-04-21T02:17:17.825Z,101599.44
2023-04-21T02:19:48.290Z,101596.91
2023-04-21T02:22:16.884Z,101607.47
2023-04-21T02:24:45.676Z,101591.09
2023-04-21T02:27:16.345Z,101605.88
2023-04-21T02:29:44.719Z,101586.84
2023-04-21T02:32:25.017Z,101589.53
2023-04-21T02:34:54.300Z,101582.25
2023-04-21T02:37:22.868Z,101580.41
2023-04-21T02:39:51.643Z,101570.72
2023-04-21T02:42:21.661Z,101581.34
2023-04-21T02:44:50.668Z,101589.53
2023-04-21T02:47:19.352Z,101589.63
2023-04-21T02:49:47.881Z,101577.31
2023-04-21T02:52:16.252Z,101561.69
2023-04-21T02:54:44.675Z,101572.16
2023-04-21T02:57:13.695Z,101575.69
2023-04-21T02:59:43.592Z,101568.66
2023-04-21T03:02:12.325Z,101570.50
2023-04-21T03:04:41.005Z,101572.38
2023-04-21T03:07:14.040Z,101581.03
2023-04-21T03:09:42.789Z,101575.00
2023-04-21T03:12:11.627Z,101568.03
2023-04-21T03:14:40.466Z,101556.66
2023-04-21T03:17:10.483Z,101553.03
2023-04-21T03:19:39.003Z,101540.81
2023-04-21T03:22:07.738Z,101538.44
2023-04-21T03:24:36.733Z,101514.75
2023-04-21T03:27:08.770Z,101540.97
2023-04-21T03:29:39.391Z,101550.56
2023-04-21T03:32:07.913Z,101555.75
2023-04-21T03:34:38.024Z,101545.22
2023-04-21T03:37:06.379Z,101535.72
2023-04-21T03:39:35.803Z,101539.78
2023-04-21T03:42:05.081Z,101532.13
2023-04-21T03:44:34.455Z,101532.13
2023-04-21T03:47:03.868Z,101524.34
2023-04-21T03:49:32.472Z,101519.22
2023-04-21T03:52:02.473Z,101522.66
2023-04-21T03:54:30.984Z,101523.25
2023-04-21T03:56:59.507Z,101523.16
2023-04-21T03:59:28.066Z,101518.00
2023-04-21T04:01:56.685Z,101518.00
2023-04-21T04:04:25.585Z,101508.22
2023-04-21T04:06:54.505Z,101515.81
2023-04-21T04:09:24.485Z,101517.41
2023-04-21T04:11:53.065Z,101508.56
2023-04-21T04:14:21.319Z,101503.41
2023-04-21T04:16:49.754Z,101507.72
2023-04-21T04:19:18.414Z,101508.56
2023-04-21T04:21:49.096Z,101509.50
2023-04-21T04:24:17.687Z,101506.97
2023-04-21T04:26:48.260Z,101498.75
2023-04-21T04:29:18.307Z,101501.63
2023-04-21T04:31:47.119Z,101500.63
2023-04-21T04:34:16.029Z,101507.47
2023-04-21T04:36:45.026Z,101494.25
2023-04-21T04:39:14.084Z,101491.28
2023-04-21T04:41:42.886Z,101483.41
2023-04-21T04:44:12.910Z,101489.41
2023-04-21T04:46:41.543Z,101487.31
2023-04-21T04:49:10.078Z,101486.38
2023-04-21T04:51:38.882Z,101483.91
2023-04-21T04:54:07.802Z,101476.84
2023-04-21T04:56:36.966Z,101471.78
2023-04-21T04:59:05.380Z,101470.34
2023-04-21T05:01:35.679Z,101472.88
2023-04-21T05:04:04.197Z,101465.13
2023-04-21T05:06:32.960Z,101459.03
2023-04-21T05:09:01.354Z,101462.84
2023-04-21T05:11:29.602Z,101471.75
2023-04-21T05:13:58.922Z,101478.72
2023-04-21T05:16:27.423Z,101480.56
2023-04-21T05:18:57.467Z,101463.94
2023-04-21T05:21:28.523Z,101480.41
2023-04-21T05:23:57.566Z,101475.47
2023-04-21T05:26:27.824Z,101472.06
2023-04-21T05:28:56.652Z,101472.41
2023-04-21T05:31:25.532Z,101473.06
2023-04-21T05:33:54.235Z,101464.53
2023-04-21T05:36:25.106Z,101471.63
2023-04-21T05:38:55.268Z,101480.47
2023-04-21T05:41:24.291Z,101471.97
2023-04-21T05:43:52.678Z,101475.53
2023-04-21T05:46:21.761Z,101465.06
2023-04-21T05:48:53.053Z,101459.81
2023-04-21T05:51:21.701Z,101455.59
2023-04-21T05:53:51.708Z,101462.38
2023-04-21T05:56:20.315Z,101458.03
2023-04-21T05:58:48.862Z,101464.06
2023-04-21T06:01:17.733Z,101463.94
2023-04-21T06:03:46.137Z,101456.94
2023-04-21T06:06:15.574Z,101458.31
2023-04-21T06:08:44.058Z,101464.78
2023-04-21T06:11:14.060Z,101466.38
2023-04-21T06:13:43.663Z,101472.31
2023-04-21T06:16:12.599Z,101482.50
2023-04-21T06:18:41.295Z,101476.50
2023-04-21T06:21:09.634Z,101474.06
2023-04-21T06:23:38.042Z,101472.03
2023-04-21T06:26:08.056Z,101469.03
2023-04-21T06:28:39.607Z,101465.41
2023-04-21T06:31:10.026Z,101462.53
2023-04-21T06:33:38.518Z,101446.16
2023-04-21T06:36:07.986Z,101434.69
2023-04-21T06:38:36.602Z,101416.25
2023-04-21T06:41:06.199Z,101409.28
2023-04-21T06:43:34.852Z,101402.16
2023-04-21T06:46:04.644Z,101386.44
2023-04-21T06:48:33.607Z,101390.78
2023-04-21T06:51:03.196Z,101385.31
2023-04-21T06:53:31.795Z,101389.13
2023-04-21T06:56:00.454Z,101379.97
2023-04-21T06:58:28.781Z,101380.13
2023-04-21T07:00:57.302Z,101384.41
2023-04-21T07:03:27.530Z,101382.94
2023-04-21T07:05:55.952Z,101379.38
2023-04-21T07:08:24.919Z,101378.72
2023-04-21T07:10:53.653Z,101386.34
2023-04-21T07:13:22.297Z,101382.78
2023-04-21T07:15:51.091Z,101384.47
2023-04-21T07:18:19.862Z,101382.41
2023-04-21T07:20:50.142Z,101386.66
2023-04-21T07:23:18.657Z,101382.91
2023-04-21T07:25:47.198Z,101381.72
2023-04-21T07:28:16.404Z,101370.06
2023-04-21T07:30:45.160Z,101369.88
2023-04-21T07:33:13.577Z,101368.78
2023-04-21T07:35:42.045Z,101364.50
2023-04-21T07:38:12.197Z,101371.47
2023-04-21T07:40:40.796Z,101361.13
2023-04-21T07:43:09.292Z,101373.38
2023-04-21T07:45:37.710Z,101357.28
2023-04-21T07:48:06.961Z,101364.91
2023-04-21T07:50:36.598Z,101360.22
2023-04-21T07:53:05.490Z,101350.09
2023-04-21T07:55:37.396Z,101345.66
2023-04-21T07:58:07.028Z,101324.66
2023-04-21T08:00:35.682Z,101334.91
2023-04-21T08:03:04.261Z,101323.00
2023-04-21T08:05:36.620Z,101319.25
2023-04-21T08:08:07.625Z,101329.28
2023-04-21T08:10:37.697Z,101362.25
2023-04-21T08:13:06.832Z,101374.84
2023-04-21T08:15:36.260Z,101372.84
2023-04-21T08:18:04.923Z,101369.09
2023-04-21T08:20:36.746Z,101353.34
2023-04-21T08:23:05.448Z,101359.72
2023-04-21T08:25:34.374Z,101356.75
2023-04-21T08:28:04.593Z,101346.59
2023-04-21T08:30:33.470Z,101345.56
2023-04-21T08:33:01.920Z,101352.03
2023-04-21T08:35:30.374Z,101341.59
2023-04-21T08:37:58.764Z,101331.63
2023-04-21T08:40:33.831Z,101331.59
2023-04-21T08:43:03.679Z,101319.03
2023-04-21T08:45:32.924Z,101302.50
2023-04-21T08:48:02.556Z,101296.16
2023-04-21T08:50:33.051Z,101295.38
2023-04-21T08:53:01.826Z,101287.94
2023-04-21T08:55:32.341Z,101283.91
2023-04-21T08:58:00.765Z,101274.06
2023-04-21T09:00:30.826Z,101262.84
2023-04-21T09:03:02.434Z,101261.50
2023-04-21T09:05:33.612Z,101261.78
2023-04-21T09:08:13.159Z,101267.25
2023-04-21T09:10:46.931Z,101256.72
2023-04-21T09:13:15.844Z,101256.44
2023-04-21T09:15:47.339Z,101263.03
2023-04-21T09:18:17.497Z,101259.91
2023-04-21T09:20:48.349Z,101270.78
2023-04-21T09:23:17.774Z,101266.22
2023-04-21T09:25:47.169Z,101245.34
2023-04-21T09:28:16.614Z,101252.47
2023-04-21T09:30:46.944Z,101242.16
2023-04-21T09:33:28.012Z,101234.59
2023-04-21T09:35:57.891Z,101232.69
2023-04-21T09:38:26.356Z,101231.19
2023-04-21T09:41:03.998Z,101217.91
2023-04-21T09:43:32.470Z,101216.63
2023-04-21T09:46:07.383Z,101215.88
2023-04-21T09:48:38.288Z,101223.38
2023-04-21T09:53:41.244Z,101209.59
2023-04-21T09:56:13.387Z,101211.00
2023-04-21T09:58:54.327Z,101209.13
2023-04-21T10:01:28.584Z,101204.47
2023-04-21T10:03:57.908Z,101201.91
2023-04-21T10:06:26.807Z,101197.59
2023-04-21T10:08:58.663Z,101189.97
2023-04-21T10:11:27.607Z,101182.06
2023-04-21T10:13:56.499Z,101171.00
2023-04-21T10:16:26.903Z,101173.84
2023-04-21T10:18:55.504Z,101175.53
2023-04-21T10:21:24.730Z,101171.22
2023-04-21T10:23:54.986Z,101168.75
2023-04-21T10:26:25.692Z,101159.78
2023-04-21T10:28:56.416Z,101166.88
2023-04-21T10:31:31.924Z,101170.38
2023-04-21T10:34:18.314Z,101174.53
2023-04-21T10:37:13.358Z,101157.66
2023-04-21T10:39:48.416Z,101159.69
2023-04-21T10:42:27.759Z,101153.72
2023-04-21T10:45:10.345Z,101143.66
2023-04-21T10:47:43.122Z,101137.66
2023-04-21T10:50:20.741Z,101129.09
2023-04-21T10:52:55.970Z,101127.84
2023-04-21T10:55:27.257Z,101124.50
2023-04-21T10:57:55.801Z,101122.03
2023-04-21T11:00:26.047Z,101124.97
2023-04-21T11:03:01.240Z,101115.19
2023-04-21T11:05:36.614Z,101116.06
2023-04-21T11:08:15.672Z,101101.59
2023-04-21T11:10:56.394Z,101094.09
2023-04-21T11:13:26.737Z,101095.09
2023-04-21T11:16:12.806Z,101090.16
2023-04-21T11:18:44.821Z,101082.50
2023-04-21T11:21:18.695Z,101085.41
2023-04-21T11:23:51.939Z,101079.38
2023-04-21T11:26:30.989Z,101070.06
2023-04-21T11:29:02.679Z,101062.63
2023-04-21T11:31:31.726Z,101065.88
2023-04-21T11:34:02.716Z,101056.84
2023-04-21T11:36:31.137Z,101050.75
2023-04-21T11:38:59.848Z,101017.81
2023-04-21T11:41:28.829Z,101037.88
2023-04-21T11:43:57.208Z,101026.16
2023-04-21T11:46:27.801Z,101019.69
2023-04-21T11:49:05.904Z,101036.63
2023-04-21T11:51:36.271Z,101018.84
2023-04-21T11:54:07.201Z,101015.38
2023-04-21T11:56:38.400Z,101013.13
2023-04-21T11:59:11.029Z,101010.78
2023-04-21T12:01:45.055Z,101001.81
2023-04-21T12:04:18.403Z,100997.25
2023-04-21T12:06:47.680Z,100985.66
2023-04-21T12:09:20.340Z,100975.00
2023-04-21T12:11:50.814Z,100977.31
2023-04-21T12:14:20.912Z,100962.31
2023-04-21T12:16:51.670Z,100978.50
2023-04-21T12:19:27.062Z,100960.44
2023-04-21T12:21:57.134Z,100941.81
2023-04-21T12:24:26.332Z,100941.97
2023-04-21T12:26:55.441Z,100935.63
2023-04-21T12:29:23.752Z,100934.78
2023-04-21T12:31:52.348Z,100936.22
2023-04-21T12:34:20.691Z,100941.91
2023-04-21T12:36:51.262Z,100935.88
2023-04-21T12:39:20.800Z,100932.88
2023-04-21T12:41:49.355Z,100931.75
2023-04-21T12:44:18.123Z,100930.94
2023-04-21T12:46:46.553Z,100934.09
2023-04-21T12:49:15.929Z,100921.53
2023-04-21T12:51:45.287Z,100917.28
2023-04-21T12:54:15.774Z,100907.22
2023-04-21T12:56:44.829Z,100903.47
2023-04-21T12:59:13.738Z,100901.53
2023-04-21T13:01:43.705Z,100894.06
2023-04-21T13:04:12.384Z,100895.19
2023-04-21T13:06:41.084Z,100882.44
2023-04-21T13:09:10.018Z,100881.03
2023-04-21T13:11:40.137Z,100877.06
2023-04-21T13:14:09.335Z,100870.13
2023-04-21T13:16:38.397Z,100874.88
2023-04-21T13:19:06.929Z,100868.47
2023-04-21T13:21:35.593Z,100871.50
2023-04-21T13:24:04.120Z,100878.50
2023-04-21T13:26:35.438Z,100865.09
2023-04-21T13:29:05.842Z,100855.69
2023-04-21T13:31:34.200Z,100871.22
2023-04-21T13:34:03.115Z,100866.59
2023-04-21T13:36:32.682Z,100849.84
2023-04-21T13:39:01.860Z,100844.94
2023-04-21T13:41:30.521Z,100846.22
2023-04-21T13:43:59.108Z,100837.31
2023-04-21T13:46:29.866Z,100820.47
2023-04-21T13:48:59.597Z,100804.81
2023-04-21T13:51:28.180Z,100810.81
2023-04-21T13:53:56.707Z,100804.94
2023-04-21T13:56:26.092Z,100800.38
2023-04-21T13:58:55.622Z,100801.19
2023-04-21T14:01:25.267Z,100789.28
2023-04-21T14:03:55.519Z,100784.78
2023-04-21T14:06:24.165Z,100773.44
2023-04-21T14:08:52.846Z,100771.28
2023-04-21T14:11:21.835Z,100769.91
2023-04-21T14:14:07.529Z,100761.00
2023-04-21T14:16:37.380Z,100745.75
2023-04-21T14:19:07.563Z,100737.47
2023-04-21T14:21:36.311Z,100752.66
2023-04-21T14:24:05.443Z,100738.13
2023-04-21T14:26:34.136Z,100744.91
2023-04-21T14:29:03.854Z,100753.31
2023-04-21T14:31:32.464Z,100736.06
2023-04-21T14:34:01.949Z,100743.09
2023-04-21T14:36:33.072Z,100744.31
2023-04-21T14:39:01.607Z,100751.69
2023-04-21T14:41:30.110Z,100748.63
2023-04-21T14:44:00.550Z,100742.78
2023-04-21T14:46:29.787Z,100745.38
2023-04-21T14:48:58.504Z,100737.38
2023-04-21T14:51:27.211Z,100745.38
2023-04-21T14:53:57.644Z,100736.00
2023-04-21T14:56:26.110Z,100742.06
2023-04-21T14:58:54.955Z,100740.84
2023-04-21T15:01:25.827Z,100746.69
2023-04-21T15:03:58.004Z,100738.19
2023-04-21T15:08:58.610Z,100724.91
2023-04-21T15:11:27.395Z,100730.75
2023-04-21T15:13:57.294Z,100734.53
2023-04-21T15:16:27.053Z,100724.34
2023-04-21T15:18:56.977Z,100719.56
2023-04-21T15:21:27.633Z,100718.38
2023-04-21T15:23:57.700Z,100730.91
2023-04-21T15:26:26.954Z,100731.72
2023-04-21T15:28:55.934Z,100739.94
2023-04-21T15:31:25.476Z,100733.41
2023-04-21T15:33:54.045Z,100730.81
2023-04-21T15:36:22.424Z,100738.38
2023-04-21T15:38:51.067Z,100721.72
2023-04-21T15:41:29.855Z,100733.72
2023-04-21T15:43:58.363Z,100735.00
2023-04-21T15:46:29.096Z,100727.13
2023-04-21T15:48:58.649Z,100720.09
2023-04-21T15:51:38.419Z,100723.06
2023-04-21T15:54:10.934Z,100718.16
2023-04-21T15:56:42.033Z,100706.72
2023-04-21T15:59:12.726Z,100695.69
2023-04-21T16:01:49.795Z,100699.75
2023-04-21T16:04:20.939Z,100703.06
2023-04-21T16:06:52.121Z,100697.72
2023-04-21T16:09:26.721Z,100691.47
2023-04-21T16:14:28.083Z,100671.69
2023-04-21T16:16:58.843Z,100669.41
2023-04-21T16:19:29.477Z,100672.91
2023-04-21T16:22:07.254Z,100671.28
2023-04-21T16:24:36.347Z,100669.06
2023-04-21T16:27:08.237Z,100665.31
2023-04-21T16:29:37.796Z,100667.00
2023-04-21T16:32:08.465Z,100658.06
2023-04-21T16:34:37.399Z,100649.19
2023-04-21T16:37:06.668Z,100633.34
2023-04-21T16:39:36.101Z,100626.22
2023-04-21T16:42:08.314Z,100637.19
2023-04-21T16:44:38.972Z,100634.47
2023-04-21T16:47:08.353Z,100627.19
2023-04-21T16:49:37.048Z,100630.25
2023-04-21T16:52:08.588Z,100636.84
2023-04-21T16:54:38.279Z,100632.13
2023-04-21T16:57:11.745Z,100629.06
2023-04-21T16:59:41.108Z,100635.16
2023-04-21T17:02:09.796Z,100641.50
2023-04-21T17:04:41.774Z,100625.09
2023-04-21T17:07:12.686Z,100621.22
2023-04-21T17:09:41.231Z,100623.66
2023-04-21T17:12:12.784Z,100603.44
2023-04-21T17:14:42.724Z,100607.38
2023-04-21T17:17:17.321Z,100594.97
2023-04-21T17:19:45.828Z,100610.78
2023-04-21T17:22:14.446Z,100610.50
2023-04-21T17:24:53.107Z,100618.84
2023-04-21T17:27:24.935Z,100614.72
2023-04-21T17:29:54.719Z,100597.41
2023-04-21T17:32:23.330Z,100600.78
2023-04-21T17:34:52.494Z,100598.03
2023-04-21T17:37:22.356Z,100590.66
2023-04-21T17:39:50.934Z,100590.41
2023-04-21T17:42:19.455Z,100588.72
2023-04-21T17:44:50.053Z,100598.00
2023-04-21T17:47:18.903Z,100592.00
2023-04-21T17:49:49.281Z,100601.22
2023-04-21T17:52:18.788Z,100602.72
2023-04-21T17:54:47.388Z,100601.28
2023-04-21T17:57:17.110Z,100593.28
2023-04-21T17:59:45.912Z,100590.75
2023-04-21T18:02:22.402Z,100589.31
2023-04-21T18:04:51.537Z,100589.97
2023-04-21T18:07:21.571Z,100592.81
2023-04-21T18:09:56.746Z,100604.63
2023-04-21T18:12:26.170Z,100606.88
2023-04-21T18:14:55.194Z,100591.16
2023-04-21T18:17:25.199Z,100579.38
2023-04-21T18:19:53.575Z,100578.59
2023-04-21T18:22:22.566Z,100592.38
2023-04-21T18:24:51.307Z,100599.72
2023-04-21T18:27:20.250Z,100598.34
2023-04-21T18:29:48.723Z,100603.78
2023-04-21T18:32:17.505Z,100606.25
2023-04-21T18:34:47.576Z,100593.09
2023-04-21T18:37:16.117Z,100602.81
2023-04-21T18:39:44.515Z,100613.72
2023-04-21T18:42:13.667Z,100620.25
2023-04-21T18:44:42.149Z,100615.44
2023-04-21T18:47:10.753Z,100620.38
2023-04-21T18:49:39.309Z,100617.63
2023-04-21T18:52:09.499Z,100626.28
2023-04-21T18:54:38.062Z,100611.31
2023-04-21T18:57:08.688Z,100615.13
2023-04-21T18:59:37.431Z,100602.88
2023-04-21T19:02:07.750Z,100613.56
2023-04-21T19:04:36.517Z,100618.56
2023-04-21T19:07:08.557Z,100612.91
2023-04-21T19:09:40.024Z,100616.28
2023-04-21T19:12:08.691Z,100621.69
2023-04-21T19:14:46.447Z,100629.50
2023-04-21T19:17:15.745Z,100625.91
2023-04-21T19:19:44.438Z,100627.28
2023-04-21T19:22:13.945Z,100635.75
2023-04-21T19:24:43.767Z,100639.59
2023-04-21T19:27:12.757Z,100638.13
2023-04-21T19:29:41.827Z,100643.69
2023-04-21T19:32:10.320Z,100633.22
2023-04-21T19:34:39.362Z,100630.53
2023-04-21T19:37:08.537Z,100639.69
2023-04-21T19:39:36.809Z,100644.44
2023-04-21T19:42:09.391Z,100641.09
2023-04-21T19:44:40.129Z,100654.09
2023-04-21T19:47:08.662Z,100648.81
2023-04-21T19:49:37.278Z,100647.72
2023-04-21T19:52:06.161Z,100647.03
2023-04-21T19:54:34.783Z,100647.97
2023-04-21T19:57:04.418Z,100643.53
2023-04-21T19:59:35.288Z,100643.19
2023-04-21T20:02:06.569Z,100637.53
2023-04-21T20:04:37.930Z,100633.34
2023-04-21T20:07:07.024Z,100635.59
2023-04-21T20:09:35.587Z,100637.06
2023-04-21T20:12:05.743Z,100634.31
2023-04-21T20:14:36.021Z,100638.38
2023-04-21T20:17:05.858Z,100643.44
2023-04-21T20:19:40.692Z,100639.09
2023-04-21T20:22:11.634Z,100631.06
2023-04-21T20:24:39.981Z,100631.91
2023-04-21T20:27:08.989Z,100633.81
2023-04-21T20:29:39.370Z,100631.53
2023-04-21T20:32:08.187Z,100634.44
2023-04-21T20:34:37.907Z,100635.50
2023-04-21T20:37:08.200Z,100624.47
2023-04-21T20:39:38.459Z,100627.00
2023-04-21T20:42:13.391Z,100629.03
2023-04-21T20:44:56.958Z,100626.16
2023-04-21T20:47:25.696Z,100625.66
2023-04-21T20:50:10.699Z,100623.25
2023-04-21T20:52:45.149Z,100622.91
2023-04-21T20:55:13.658Z,100612.34
2023-04-21T20:57:44.082Z,100603.69
2023-04-21T21:00:15.903Z,100612.91
2023-04-21T21:02:45.868Z,100604.78
2023-04-21T21:05:24.642Z,100598.63
2023-04-21T21:08:09.348Z,100602.97
2023-04-21T21:10:39.992Z,100600.31
2023-04-21T21:13:09.549Z,100602.34
2023-04-21T21:15:47.108Z,100609.44
2023-04-21T21:18:15.789Z,100597.94
2023-04-21T21:20:50.447Z,100601.78
2023-04-21T21:23:20.108Z,100598.16
2023-04-21T21:25:49.055Z,100599.59
2023-04-21T21:28:17.468Z,100600.31
2023-04-21T21:30:48.980Z,100594.78
2023-04-21T21:33:17.764Z,100603.91
2023-04-21T21:35:53.632Z,100598.47
2023-04-21T21:38:26.053Z,100606.53
2023-04-21T21:40:57.342Z,100598.94
2023-04-21T21:43:33.828Z,100594.84
2023-04-21T21:46:07.255Z,100600.97
2023-04-21T21:48:35.879Z,100596.78
2023-04-21T21:51:12.384Z,100594.97
2023-04-21T21:53:42.050Z,100599.50
2023-04-21T21:56:10.722Z,100599.41
2023-04-21T21:58:40.687Z,100601.81
2023-04-21T22:01:11.812Z,100612.22
2023-04-21T22:03:47.592Z,100608.13
2023-04-21T22:06:17.293Z,100612.22
2023-04-21T22:08:46.095Z,100618.34
2023-04-21T22:11:23.784Z,100634.28
2023-04-21T22:13:54.766Z,100633.19
2023-04-21T22:16:29.038Z,100625.88
2023-04-21T22:19:06.030Z,100616.03
2023-04-21T22:21:36.731Z,100609.94
2023-04-21T22:24:07.861Z,100606.44
2023-04-21T22:26:38.233Z,100599.28
2023-04-21T22:29:13.048Z,100607.06
2023-04-21T22:31:44.770Z,100604.44
2023-04-21T22:34:16.937Z,100597.00
2023-04-21T22:36:52.328Z,100602.75
2023-04-21T22:39:21.970Z,100594.00
2023-04-21T22:41:55.955Z,100594.94
2023-04-21T22:44:25.971Z,100592.41
2023-04-21T22:46:57.237Z,100586.31
2023-04-21T22:49:26.395Z,100589.91
2023-04-21T22:51:59.309Z,100591.09
2023-04-21T22:54:31.443Z,100588.59
2023-04-21T22:57:00.507Z,100590.28
2023-04-21T22:59:29.344Z,100595.06
2023-04-21T23:02:06.454Z,100592.41
2023-04-21T23:04:44.551Z,100590.00
2023-04-21T23:07:25.235Z,100586.56
2023-04-21T23:09:55.157Z,100580.28
2023-04-21T23:12:24.985Z,100589.75
2023-04-21T23:14:55.810Z,100585.34
2023-04-21T23:17:26.228Z,100585.91
2023-04-21T23:19:55.867Z,100586.03
2023-04-21T23:22:26.033Z,100587.00
2023-04-21T23:24:54.899Z,100580.06
2023-04-21T23:27:24.652Z,100583.03
2023-04-21T23:30:03.373Z,100585.56
2023-04-21T23:32:36.902Z,100583.38
2023-04-21T23:35:05.763Z,100584.56
2023-04-21T23:37:48.913Z,100590.28
2023-04-21T23:40:24.170Z,100578.06
2023-04-21T23:42:53.808Z,100575.56
2023-04-21T23:45:23.697Z,100569.84
2023-04-21T23:47:53.583Z,100573.31
2023-04-21T23:50:41.799Z,100565.84
2023-04-21T23:53:12.838Z,100574.38
2023-04-21T23:55:41.431Z,100562.63
2023-04-21T23:58:11.555Z,100560.91
